sensor_id;sensor_type;location;lat;lon;timestamp;pressure;altitude;pressure_sealevel;temperature
68952;BMP180;56000;51.146;17.112;2023-04-01T00:02:28;98404.60;;;9.30
68952;BMP180;56000;51.146;17.112;2023-04-01T00:05:01;98405.80;;;9.30
68952;BMP180;56000;51.146;17.112;2023-04-01T00:07:35;98407.00;;;9.30
68952;BMP180;56000;51.146;17.112;2023-04-01T00:10:11;98409.20;;;9.30
68952;BMP180;56000;51.146;17.112;2023-04-01T00:12:44;98405.20;;;9.32
68952;BMP180;56000;51.146;17.112;2023-04-01T00:15:17;98405.00;;;9.38
68952;BMP180;56000;51.146;17.112;2023-04-01T00:17:50;98405.00;;;9.40
68952;BMP180;56000;51.146;17.112;2023-04-01T00:20:24;98403.80;;;9.34
68952;BMP180;56000;51.146;17.112;2023-04-01T00:22:57;98405.00;;;9.34
68952;BMP180;56000;51.146;17.112;2023-04-01T00:25:30;98401.40;;;9.30
68952;BMP180;56000;51.146;17.112;2023-04-01T00:28:04;98401.60;;;9.30
68952;BMP180;56000;51.146;17.112;2023-04-01T00:30:38;98395.00;;;9.30
68952;BMP180;56000;51.146;17.112;2023-04-01T00:33:12;98395.00;;;9.30
68952;BMP180;56000;51.146;17.112;2023-04-01T00:35:45;98397.00;;;9.30
68952;BMP180;56000;51.146;17.112;2023-04-01T00:38:19;98401.80;;;9.30
68952;BMP180;56000;51.146;17.112;2023-04-01T00:40:58;98404.80;;;9.30
68952;BMP180;56000;51.146;17.112;2023-04-01T00:43:32;98405.80;;;9.30
68952;BMP180;56000;51.146;17.112;2023-04-01T00:46:05;98406.40;;;9.34
68952;BMP180;56000;51.146;17.112;2023-04-01T00:48:41;98404.20;;;9.40
68952;BMP180;56000;51.146;17.112;2023-04-01T00:51:20;98402.40;;;9.40
68952;BMP180;56000;51.146;17.112;2023-04-01T00:53:58;98395.60;;;9.44
68952;BMP180;56000;51.146;17.112;2023-04-01T00:56:37;98398.40;;;9.50
68952;BMP180;56000;51.146;17.112;2023-04-01T00:59:16;98396.20;;;9.50
68952;BMP180;56000;51.146;17.112;2023-04-01T01:01:51;98401.20;;;9.50
68952;BMP180;56000;51.146;17.112;2023-04-01T01:04:30;98402.20;;;9.60
68952;BMP180;56000;51.146;17.112;2023-04-01T01:07:14;98400.40;;;9.60
68952;BMP180;56000;51.146;17.112;2023-04-01T01:09:57;98398.80;;;9.60
68952;BMP180;56000;51.146;17.112;2023-04-01T01:12:41;98399.60;;;9.60
68952;BMP180;56000;51.146;17.112;2023-04-01T01:15:22;98397.80;;;9.60
68952;BMP180;56000;51.146;17.112;2023-04-01T01:18:03;98402.80;;;9.60
68952;BMP180;56000;51.146;17.112;2023-04-01T01:21:19;98399.60;;;9.60
68952;BMP180;56000;51.146;17.112;2023-04-01T01:24:26;98401.20;;;9.60
68952;BMP180;56000;51.146;17.112;2023-04-01T01:27:07;98398.00;;;9.60
68952;BMP180;56000;51.146;17.112;2023-04-01T01:30:14;98397.60;;;9.60
68952;BMP180;56000;51.146;17.112;2023-04-01T01:33:25;98393.60;;;9.60
68952;BMP180;56000;51.146;17.112;2023-04-01T01:36:03;98399.20;;;9.56
68952;BMP180;56000;51.146;17.112;2023-04-01T01:38:39;98402.60;;;9.50
68952;BMP180;56000;51.146;17.112;2023-04-01T01:41:15;98398.60;;;9.50
68952;BMP180;56000;51.146;17.112;2023-04-01T01:43:51;98393.40;;;9.50
68952;BMP180;56000;51.146;17.112;2023-04-01T01:46:28;98397.40;;;9.50
68952;BMP180;56000;51.146;17.112;2023-04-01T01:49:03;98396.40;;;9.50
68952;BMP180;56000;51.146;17.112;2023-04-01T01:51:37;98392.60;;;9.50
68952;BMP180;56000;51.146;17.112;2023-04-01T01:54:16;98391.00;;;9.50
68952;BMP180;56000;51.146;17.112;2023-04-01T01:56:55;98389.80;;;9.50
68952;BMP180;56000;51.146;17.112;2023-04-01T01:59:31;98388.80;;;9.54
68952;BMP180;56000;51.146;17.112;2023-04-01T02:02:07;98384.40;;;9.50
68952;BMP180;56000;51.146;17.112;2023-04-01T02:04:45;98381.80;;;9.50
68952;BMP180;56000;51.146;17.112;2023-04-01T02:07:21;98383.80;;;9.50
68952;BMP180;56000;51.146;17.112;2023-04-01T02:09:56;98383.00;;;9.52
68952;BMP180;56000;51.146;17.112;2023-04-01T02:12:30;98382.60;;;9.56
68952;BMP180;56000;51.146;17.112;2023-04-01T02:15:08;98380.00;;;9.56
68952;BMP180;56000;51.146;17.112;2023-04-01T02:17:45;98382.00;;;9.60
68952;BMP180;56000;51.146;17.112;2023-04-01T02:20:21;98385.40;;;9.60
68952;BMP180;56000;51.146;17.112;2023-04-01T02:22:57;98375.80;;;9.60
68952;BMP180;56000;51.146;17.112;2023-04-01T02:25:34;98374.40;;;9.60
68952;BMP180;56000;51.146;17.112;2023-04-01T02:28:10;98371.80;;;9.60
68952;BMP180;56000;51.146;17.112;2023-04-01T02:30:46;98366.00;;;9.60
68952;BMP180;56000;51.146;17.112;2023-04-01T02:33:20;98366.00;;;9.60
68952;BMP180;56000;51.146;17.112;2023-04-01T02:35:54;98372.60;;;9.60
68952;BMP180;56000;51.146;17.112;2023-04-01T02:38:27;98369.00;;;9.60
68952;BMP180;56000;51.146;17.112;2023-04-01T02:41:02;98369.60;;;9.66
68952;BMP180;56000;51.146;17.112;2023-04-01T02:43:36;98374.60;;;9.70
68952;BMP180;56000;51.146;17.112;2023-04-01T02:46:09;98369.60;;;9.70
68952;BMP180;56000;51.146;17.112;2023-04-01T02:48:42;98366.60;;;9.70
68952;BMP180;56000;51.146;17.112;2023-04-01T02:51:16;98369.60;;;9.70
68952;BMP180;56000;51.146;17.112;2023-04-01T02:53:49;98375.00;;;9.70
68952;BMP180;56000;51.146;17.112;2023-04-01T02:56:22;98371.80;;;9.70
68952;BMP180;56000;51.146;17.112;2023-04-01T02:58:56;98378.80;;;9.70
68952;BMP180;56000;51.146;17.112;2023-04-01T03:01:29;98378.20;;;9.70
68952;BMP180;56000;51.146;17.112;2023-04-01T03:04:02;98380.20;;;9.74
68952;BMP180;56000;51.146;17.112;2023-04-01T03:06:35;98382.20;;;9.72
68952;BMP180;56000;51.146;17.112;2023-04-01T03:09:09;98386.80;;;9.76
68952;BMP180;56000;51.146;17.112;2023-04-01T03:11:42;98383.80;;;9.80
68952;BMP180;56000;51.146;17.112;2023-04-01T03:14:15;98385.80;;;9.80
68952;BMP180;56000;51.146;17.112;2023-04-01T03:16:48;98389.80;;;9.80
68952;BMP180;56000;51.146;17.112;2023-04-01T03:19:21;98390.60;;;9.80
68952;BMP180;56000;51.146;17.112;2023-04-01T03:21:54;98385.20;;;9.80
68952;BMP180;56000;51.146;17.112;2023-04-01T03:24:28;98387.40;;;9.84
68952;BMP180;56000;51.146;17.112;2023-04-01T03:27:01;98391.40;;;9.82
68952;BMP180;56000;51.146;17.112;2023-04-01T03:29:34;98393.20;;;9.86
68952;BMP180;56000;51.146;17.112;2023-04-01T03:32:08;98394.40;;;9.86
68952;BMP180;56000;51.146;17.112;2023-04-01T03:34:41;98395.00;;;9.82
68952;BMP180;56000;51.146;17.112;2023-04-01T03:37:14;98394.00;;;9.80
68952;BMP180;56000;51.146;17.112;2023-04-01T03:39:47;98394.40;;;9.80
68952;BMP180;56000;51.146;17.112;2023-04-01T03:42:20;98397.40;;;9.80
68952;BMP180;56000;51.146;17.112;2023-04-01T03:44:53;98395.80;;;9.80
68952;BMP180;56000;51.146;17.112;2023-04-01T03:47:27;98396.60;;;9.80
68952;BMP180;56000;51.146;17.112;2023-04-01T03:50:00;98396.00;;;9.80
68952;BMP180;56000;51.146;17.112;2023-04-01T03:52:33;98395.20;;;9.80
68952;BMP180;56000;51.146;17.112;2023-04-01T03:55:08;98397.20;;;9.80
68952;BMP180;56000;51.146;17.112;2023-04-01T03:57:42;98398.20;;;9.78
68952;BMP180;56000;51.146;17.112;2023-04-01T04:00:20;98401.00;;;9.70
68952;BMP180;56000;51.146;17.112;2023-04-01T04:02:55;98404.00;;;9.70
68952;BMP180;56000;51.146;17.112;2023-04-01T04:05:33;98404.00;;;9.68
68952;BMP180;56000;51.146;17.112;2023-04-01T04:08:07;98402.40;;;9.60
68952;BMP180;56000;51.146;17.112;2023-04-01T04:10:40;98408.40;;;9.60
68952;BMP180;56000;51.146;17.112;2023-04-01T04:13:13;98412.20;;;9.60
68952;BMP180;56000;51.146;17.112;2023-04-01T04:15:51;98412.40;;;9.60
68952;BMP180;56000;51.146;17.112;2023-04-01T04:18:25;98415.00;;;9.50
68952;BMP180;56000;51.146;17.112;2023-04-01T04:20:58;98410.40;;;9.50
68952;BMP180;56000;51.146;17.112;2023-04-01T04:23:31;98412.20;;;9.50
68952;BMP180;56000;51.146;17.112;2023-04-01T04:26:07;98414.20;;;9.44
68952;BMP180;56000;51.146;17.112;2023-04-01T04:28:41;98415.20;;;9.40
68952;BMP180;56000;51.146;17.112;2023-04-01T04:31:19;98421.00;;;9.40
68952;BMP180;56000;51.146;17.112;2023-04-01T04:33:54;98422.00;;;9.34
68952;BMP180;56000;51.146;17.112;2023-04-01T04:36:27;98423.40;;;9.30
68952;BMP180;56000;51.146;17.112;2023-04-01T04:39:00;98421.80;;;9.30
68952;BMP180;56000;51.146;17.112;2023-04-01T04:41:38;98415.40;;;9.30
68952;BMP180;56000;51.146;17.112;2023-04-01T04:44:11;98416.40;;;9.30
68952;BMP180;56000;51.146;17.112;2023-04-01T04:46:44;98420.80;;;9.30
68952;BMP180;56000;51.146;17.112;2023-04-01T04:49:18;98417.40;;;9.30
68952;BMP180;56000;51.146;17.112;2023-04-01T04:51:52;98425.60;;;9.30
68952;BMP180;56000;51.146;17.112;2023-04-01T04:54:27;98426.00;;;9.30
68952;BMP180;56000;51.146;17.112;2023-04-01T04:57:01;98424.00;;;9.30
68952;BMP180;56000;51.146;17.112;2023-04-01T04:59:38;98426.40;;;9.30
68952;BMP180;56000;51.146;17.112;2023-04-01T05:02:17;98426.00;;;9.30
68952;BMP180;56000;51.146;17.112;2023-04-01T05:04:51;98426.60;;;9.36
68952;BMP180;56000;51.146;17.112;2023-04-01T05:07:24;98431.40;;;9.40
68952;BMP180;56000;51.146;17.112;2023-04-01T05:09:57;98434.40;;;9.40
68952;BMP180;56000;51.146;17.112;2023-04-01T05:12:31;98435.00;;;9.40
68952;BMP180;56000;51.146;17.112;2023-04-01T05:15:09;98434.80;;;9.40
68952;BMP180;56000;51.146;17.112;2023-04-01T05:17:43;98425.20;;;9.40
68952;BMP180;56000;51.146;17.112;2023-04-01T05:20:18;98434.40;;;9.40
68952;BMP180;56000;51.146;17.112;2023-04-01T05:22:53;98433.00;;;9.40
68952;BMP180;56000;51.146;17.112;2023-04-01T05:25:28;98430.60;;;9.50
68952;BMP180;56000;51.146;17.112;2023-04-01T05:28:02;98431.00;;;9.50
68952;BMP180;56000;51.146;17.112;2023-04-01T05:30:35;98432.20;;;9.50
68952;BMP180;56000;51.146;17.112;2023-04-01T05:33:24;98431.80;;;9.50
68952;BMP180;56000;51.146;17.112;2023-04-01T05:35:58;98434.20;;;9.50
68952;BMP180;56000;51.146;17.112;2023-04-01T05:38:38;98430.20;;;9.50
68952;BMP180;56000;51.146;17.112;2023-04-01T05:41:13;98430.20;;;9.50
68952;BMP180;56000;51.146;17.112;2023-04-01T05:43:48;98434.80;;;9.50
68952;BMP180;56000;51.146;17.112;2023-04-01T05:47:00;98438.20;;;9.60
68952;BMP180;56000;51.146;17.112;2023-04-01T05:49:34;98433.40;;;9.60
68952;BMP180;56000;51.146;17.112;2023-04-01T05:52:08;98435.20;;;9.60
68952;BMP180;56000;51.146;17.112;2023-04-01T05:54:41;98432.60;;;9.60
68952;BMP180;56000;51.146;17.112;2023-04-01T05:57:14;98428.80;;;9.60
68952;BMP180;56000;51.146;17.112;2023-04-01T05:59:47;98431.00;;;9.60
68952;BMP180;56000;51.146;17.112;2023-04-01T06:02:21;98433.60;;;9.60
68952;BMP180;56000;51.146;17.112;2023-04-01T06:04:59;98437.00;;;9.60
68952;BMP180;56000;51.146;17.112;2023-04-01T06:07:34;98440.80;;;9.60
68952;BMP180;56000;51.146;17.112;2023-04-01T06:10:16;98443.40;;;9.60
68952;BMP180;56000;51.146;17.112;2023-04-01T06:12:59;98446.40;;;9.60
68952;BMP180;56000;51.146;17.112;2023-04-01T06:15:40;98449.00;;;9.60
68952;BMP180;56000;51.146;17.112;2023-04-01T06:18:48;98454.60;;;9.60
68952;BMP180;56000;51.146;17.112;2023-04-01T06:22:02;98457.20;;;9.60
68952;BMP180;56000;51.146;17.112;2023-04-01T06:25:24;98460.40;;;9.60
68952;BMP180;56000;51.146;17.112;2023-04-01T06:31:38;98458.40;;;9.66
68952;BMP180;56000;51.146;17.112;2023-04-01T06:34:35;98464.60;;;9.70
68952;BMP180;56000;51.146;17.112;2023-04-01T06:37:40;98467.80;;;9.80
68952;BMP180;56000;51.146;17.112;2023-04-01T06:40:40;98466.60;;;9.80
68952;BMP180;56000;51.146;17.112;2023-04-01T06:43:19;98468.40;;;9.80
68952;BMP180;56000;51.146;17.112;2023-04-01T06:46:21;98466.60;;;9.82
68952;BMP180;56000;51.146;17.112;2023-04-01T06:49:48;98469.40;;;9.90
68952;BMP180;56000;51.146;17.112;2023-04-01T06:52:52;98470.80;;;9.80
68952;BMP180;56000;51.146;17.112;2023-04-01T06:55:50;98473.60;;;9.80
68952;BMP180;56000;51.146;17.112;2023-04-01T06:58:41;98472.60;;;9.88
68952;BMP180;56000;51.146;17.112;2023-04-01T07:01:20;98471.80;;;9.90
68952;BMP180;56000;51.146;17.112;2023-04-01T07:03:58;98471.00;;;9.98
68952;BMP180;56000;51.146;17.112;2023-04-01T07:06:38;98474.40;;;10.00
68952;BMP180;56000;51.146;17.112;2023-04-01T07:09:16;98471.60;;;10.00
68952;BMP180;56000;51.146;17.112;2023-04-01T07:12:26;98476.40;;;10.10
68952;BMP180;56000;51.146;17.112;2023-04-01T07:15:26;98480.20;;;10.10
68952;BMP180;56000;51.146;17.112;2023-04-01T07:18:05;98473.00;;;10.10
68952;BMP180;56000;51.146;17.112;2023-04-01T07:20:40;98474.00;;;10.12
68952;BMP180;56000;51.146;17.112;2023-04-01T07:23:22;98476.80;;;10.20
68952;BMP180;56000;51.146;17.112;2023-04-01T07:26:22;98470.80;;;10.20
68952;BMP180;56000;51.146;17.112;2023-04-01T07:28:58;98473.40;;;10.24
68952;BMP180;56000;51.146;17.112;2023-04-01T07:32:18;98476.00;;;10.24
68952;BMP180;56000;51.146;17.112;2023-04-01T07:35:05;98480.80;;;10.22
68952;BMP180;56000;51.146;17.112;2023-04-01T07:37:50;98478.80;;;10.26
68952;BMP180;56000;51.146;17.112;2023-04-01T07:40:35;98481.20;;;10.28
68952;BMP180;56000;51.146;17.112;2023-04-01T07:43:30;98482.60;;;10.28
68952;BMP180;56000;51.146;17.112;2023-04-01T07:46:29;98488.40;;;10.26
68952;BMP180;56000;51.146;17.112;2023-04-01T07:49:10;98491.80;;;10.30
68952;BMP180;56000;51.146;17.112;2023-04-01T07:51:54;98486.60;;;10.30
68952;BMP180;56000;51.146;17.112;2023-04-01T07:54:37;98490.80;;;10.30
68952;BMP180;56000;51.146;17.112;2023-04-01T07:57:19;98489.60;;;10.30
68952;BMP180;56000;51.146;17.112;2023-04-01T08:00:04;98492.20;;;10.40
68952;BMP180;56000;51.146;17.112;2023-04-01T08:03:02;98499.60;;;10.50
68952;BMP180;56000;51.146;17.112;2023-04-01T08:05:45;98502.00;;;10.68
68952;BMP180;56000;51.146;17.112;2023-04-01T08:08:30;98506.40;;;10.80
68952;BMP180;56000;51.146;17.112;2023-04-01T08:11:39;98502.80;;;11.00
68952;BMP180;56000;51.146;17.112;2023-04-01T08:14:39;98506.20;;;11.20
68952;BMP180;56000;51.146;17.112;2023-04-01T08:17:42;98508.40;;;11.30
68952;BMP180;56000;51.146;17.112;2023-04-01T08:20:27;98508.60;;;11.30
68952;BMP180;56000;51.146;17.112;2023-04-01T08:23:11;98509.20;;;11.30
68952;BMP180;56000;51.146;17.112;2023-04-01T08:25:51;98503.80;;;11.38
68952;BMP180;56000;51.146;17.112;2023-04-01T08:28:32;98507.20;;;11.30
68952;BMP180;56000;51.146;17.112;2023-04-01T08:31:11;98504.60;;;11.38
68952;BMP180;56000;51.146;17.112;2023-04-01T08:33:48;98511.20;;;11.40
68952;BMP180;56000;51.146;17.112;2023-04-01T08:36:24;98506.60;;;11.40
68952;BMP180;56000;51.146;17.112;2023-04-01T08:39:15;98504.60;;;11.40
68952;BMP180;56000;51.146;17.112;2023-04-01T08:42:18;98509.00;;;11.44
68952;BMP180;56000;51.146;17.112;2023-04-01T08:45:59;98514.40;;;11.50
68952;BMP180;56000;51.146;17.112;2023-04-01T08:49:01;98517.40;;;11.60
68952;BMP180;56000;51.146;17.112;2023-04-01T08:52:20;98510.40;;;11.60
68952;BMP180;56000;51.146;17.112;2023-04-01T08:55:27;98516.20;;;11.60
68952;BMP180;56000;51.146;17.112;2023-04-01T09:05:47;98526.20;;;11.90
68952;BMP180;56000;51.146;17.112;2023-04-01T09:08:42;98519.20;;;12.00
68952;BMP180;56000;51.146;17.112;2023-04-01T09:11:34;98524.20;;;12.22
68952;BMP180;56000;51.146;17.112;2023-04-01T09:18:14;98515.40;;;12.40
68952;BMP180;56000;51.146;17.112;2023-04-01T09:21:09;98520.80;;;12.50
68952;BMP180;56000;51.146;17.112;2023-04-01T09:24:19;98525.20;;;12.70
68952;BMP180;56000;51.146;17.112;2023-04-01T09:27:17;98539.80;;;12.90
68952;BMP180;56000;51.146;17.112;2023-04-01T09:33:49;98536.60;;;13.48
68952;BMP180;56000;51.146;17.112;2023-04-01T09:36:43;98538.00;;;13.26
68952;BMP180;56000;51.146;17.112;2023-04-01T09:39:39;98543.20;;;13.06
68952;BMP180;56000;51.146;17.112;2023-04-01T09:42:43;98549.80;;;12.80
68952;BMP180;56000;51.146;17.112;2023-04-01T09:45:52;98550.80;;;12.90
68952;BMP180;56000;51.146;17.112;2023-04-01T09:48:55;98552.20;;;12.90
68952;BMP180;56000;51.146;17.112;2023-04-01T09:51:39;98554.00;;;12.60
68952;BMP180;56000;51.146;17.112;2023-04-01T09:54:29;98557.60;;;12.48
68952;BMP180;56000;51.146;17.112;2023-04-01T09:57:57;98561.20;;;12.30
68952;BMP180;56000;51.146;17.112;2023-04-01T10:05:29;98569.00;;;12.10
68952;BMP180;56000;51.146;17.112;2023-04-01T10:08:58;98566.60;;;12.12
68952;BMP180;56000;51.146;17.112;2023-04-01T10:12:31;98574.80;;;12.14
68952;BMP180;56000;51.146;17.112;2023-04-01T10:15:52;98580.60;;;12.18
68952;BMP180;56000;51.146;17.112;2023-04-01T10:25:36;98582.40;;;11.30
68952;BMP180;56000;51.146;17.112;2023-04-01T10:29:01;98584.80;;;11.10
68952;BMP180;56000;51.146;17.112;2023-04-01T10:32:34;98596.80;;;10.90
68952;BMP180;56000;51.146;17.112;2023-04-01T10:35:53;98598.80;;;10.70
68952;BMP180;56000;51.146;17.112;2023-04-01T10:42:20;98602.80;;;10.50
68952;BMP180;56000;51.146;17.112;2023-04-01T10:45:53;98606.00;;;10.42
68952;BMP180;56000;51.146;17.112;2023-04-01T10:49:17;98606.80;;;10.40
68952;BMP180;56000;51.146;17.112;2023-04-01T10:56:38;98613.20;;;10.40
68952;BMP180;56000;51.146;17.112;2023-04-01T11:07:38;98598.80;;;10.60
68952;BMP180;56000;51.146;17.112;2023-04-01T11:11:30;98599.80;;;10.70
68952;BMP180;56000;51.146;17.112;2023-04-01T11:14:58;98607.20;;;10.90
68952;BMP180;56000;51.146;17.112;2023-04-01T11:18:22;98604.60;;;11.00
68952;BMP180;56000;51.146;17.112;2023-04-01T11:21:33;98601.80;;;11.40
68952;BMP180;56000;51.146;17.112;2023-04-01T11:24:51;98607.40;;;12.00
68952;BMP180;56000;51.146;17.112;2023-04-01T11:28:37;98603.80;;;12.58
68952;BMP180;56000;51.146;17.112;2023-04-01T11:31:47;98599.40;;;13.96
68952;BMP180;56000;51.146;17.112;2023-04-01T11:34:40;98598.20;;;14.90
68952;BMP180;56000;51.146;17.112;2023-04-01T11:37:29;98606.20;;;15.20
68952;BMP180;56000;51.146;17.112;2023-04-01T11:40:47;98611.40;;;14.74
68952;BMP180;56000;51.146;17.112;2023-04-01T11:44:20;98617.20;;;13.92
68952;BMP180;56000;51.146;17.112;2023-04-01T11:47:30;98619.20;;;13.18
68952;BMP180;56000;51.146;17.112;2023-04-01T11:50:30;98629.40;;;12.70
68952;BMP180;56000;51.146;17.112;2023-04-01T11:53:14;98629.20;;;12.30
68952;BMP180;56000;51.146;17.112;2023-04-01T11:56:01;98631.00;;;12.08
68952;BMP180;56000;51.146;17.112;2023-04-01T11:59:03;98634.20;;;11.86
68952;BMP180;56000;51.146;17.112;2023-04-01T12:01:51;98628.20;;;11.62
68952;BMP180;56000;51.146;17.112;2023-04-01T12:04:54;98630.80;;;11.50
68952;BMP180;56000;51.146;17.112;2023-04-01T12:07:44;98629.60;;;11.50
68952;BMP180;56000;51.146;17.112;2023-04-01T12:10:28;98631.60;;;11.60
68952;BMP180;56000;51.146;17.112;2023-04-01T12:13:16;98632.40;;;11.80
68952;BMP180;56000;51.146;17.112;2023-04-01T12:16:15;98637.40;;;11.90
68952;BMP180;56000;51.146;17.112;2023-04-01T12:18:55;98637.00;;;12.00
68952;BMP180;56000;51.146;17.112;2023-04-01T12:21:37;98637.80;;;12.10
68952;BMP180;56000;51.146;17.112;2023-04-01T12:24:48;98641.40;;;12.14
68952;BMP180;56000;51.146;17.112;2023-04-01T12:27:39;98641.60;;;12.30
68952;BMP180;56000;51.146;17.112;2023-04-01T12:30:37;98638.80;;;12.40
68952;BMP180;56000;51.146;17.112;2023-04-01T12:33:37;98641.00;;;12.60
68952;BMP180;56000;51.146;17.112;2023-04-01T12:36:27;98640.20;;;13.10
68952;BMP180;56000;51.146;17.112;2023-04-01T12:39:22;98640.60;;;13.30
68952;BMP180;56000;51.146;17.112;2023-04-01T12:42:07;98639.00;;;13.30
68952;BMP180;56000;51.146;17.112;2023-04-01T12:45:02;98639.00;;;13.40
68952;BMP180;56000;51.146;17.112;2023-04-01T12:48:24;98639.80;;;13.58
68952;BMP180;56000;51.146;17.112;2023-04-01T12:51:28;98642.00;;;13.90
68952;BMP180;56000;51.146;17.112;2023-04-01T12:54:52;98638.80;;;14.28
68952;BMP180;56000;51.146;17.112;2023-04-01T12:57:53;98636.40;;;14.64
68952;BMP180;56000;51.146;17.112;2023-04-01T13:00:41;98641.20;;;15.94
68952;BMP180;56000;51.146;17.112;2023-04-01T13:03:35;98639.20;;;16.44
68952;BMP180;56000;51.146;17.112;2023-04-01T13:06:47;98636.20;;;17.80
68952;BMP180;56000;51.146;17.112;2023-04-01T13:09:29;98637.20;;;19.00
68952;BMP180;56000;51.146;17.112;2023-04-01T13:12:29;98640.20;;;18.56
68952;BMP180;56000;51.146;17.112;2023-04-01T13:15:23;98640.80;;;17.76
68952;BMP180;56000;51.146;17.112;2023-04-01T13:18:09;98645.80;;;17.30
68952;BMP180;56000;51.146;17.112;2023-04-01T13:20:57;98653.00;;;16.90
68952;BMP180;56000;51.146;17.112;2023-04-01T13:23:45;98656.40;;;16.50
68952;BMP180;56000;51.146;17.112;2023-04-01T13:26:29;98655.20;;;16.50
68952;BMP180;56000;51.146;17.112;2023-04-01T13:29:10;98653.80;;;16.70
68952;BMP180;56000;51.146;17.112;2023-04-01T13:32:02;98663.80;;;17.24
68952;BMP180;56000;51.146;17.112;2023-04-01T13:34:56;98667.60;;;17.16
68952;BMP180;56000;51.146;17.112;2023-04-01T13:37:49;98673.40;;;16.46
68952;BMP180;56000;51.146;17.112;2023-04-01T13:40:43;98671.00;;;15.66
68952;BMP180;56000;51.146;17.112;2023-04-01T13:43:37;98680.00;;;14.90
68952;BMP180;56000;51.146;17.112;2023-04-01T13:46:29;98684.20;;;14.38
68952;BMP180;56000;51.146;17.112;2023-04-01T13:49:59;98687.00;;;13.90
68952;BMP180;56000;51.146;17.112;2023-04-01T13:53:10;98697.60;;;13.60
68952;BMP180;56000;51.146;17.112;2023-04-01T13:56:14;98692.60;;;13.50
68952;BMP180;56000;51.146;17.112;2023-04-01T13:59:17;98697.80;;;13.40
68952;BMP180;56000;51.146;17.112;2023-04-01T14:01:59;98694.40;;;13.50
68952;BMP180;56000;51.146;17.112;2023-04-01T14:04:51;98694.20;;;13.60
68952;BMP180;56000;51.146;17.112;2023-04-01T14:07:53;98701.00;;;13.70
68952;BMP180;56000;51.146;17.112;2023-04-01T14:10:38;98705.00;;;13.80
68952;BMP180;56000;51.146;17.112;2023-04-01T14:13:17;98705.60;;;13.80
68952;BMP180;56000;51.146;17.112;2023-04-01T14:16:13;98712.40;;;13.70
68952;BMP180;56000;51.146;17.112;2023-04-01T14:19:07;98705.40;;;13.70
68952;BMP180;56000;51.146;17.112;2023-04-01T14:21:49;98704.40;;;13.66
68952;BMP180;56000;51.146;17.112;2023-04-01T14:24:46;98706.00;;;13.60
68952;BMP180;56000;51.146;17.112;2023-04-01T14:27:41;98704.60;;;13.60
68952;BMP180;56000;51.146;17.112;2023-04-01T14:30:47;98708.00;;;13.60
68952;BMP180;56000;51.146;17.112;2023-04-01T14:33:37;98705.00;;;13.70
68952;BMP180;56000;51.146;17.112;2023-04-01T14:36:38;98714.40;;;13.62
68952;BMP180;56000;51.146;17.112;2023-04-01T14:39:49;98714.60;;;13.50
68952;BMP180;56000;51.146;17.112;2023-04-01T14:42:52;98721.80;;;13.22
68952;BMP180;56000;51.146;17.112;2023-04-01T14:45:46;98728.20;;;12.98
68952;BMP180;56000;51.146;17.112;2023-04-01T14:48:30;98731.80;;;12.70
68952;BMP180;56000;51.146;17.112;2023-04-01T14:51:15;98735.00;;;12.60
68952;BMP180;56000;51.146;17.112;2023-04-01T14:54:02;98738.40;;;12.42
68952;BMP180;56000;51.146;17.112;2023-04-01T14:56:43;98743.60;;;12.30
68952;BMP180;56000;51.146;17.112;2023-04-01T14:59:29;98745.40;;;12.20
68952;BMP180;56000;51.146;17.112;2023-04-01T15:02:14;98746.60;;;12.10
68952;BMP180;56000;51.146;17.112;2023-04-01T15:05:01;98751.00;;;12.00
68952;BMP180;56000;51.146;17.112;2023-04-01T15:08:03;98755.60;;;12.00
68952;BMP180;56000;51.146;17.112;2023-04-01T15:14:04;98759.80;;;11.76
68952;BMP180;56000;51.146;17.112;2023-04-01T15:16:53;98765.80;;;11.60
68952;BMP180;56000;51.146;17.112;2023-04-01T15:19:41;98768.60;;;11.50
68952;BMP180;56000;51.146;17.112;2023-04-01T15:22:41;98763.80;;;11.40
68952;BMP180;56000;51.146;17.112;2023-04-01T15:25:39;98772.60;;;11.30
68952;BMP180;56000;51.146;17.112;2023-04-01T15:28:24;98771.40;;;11.20
68952;BMP180;56000;51.146;17.112;2023-04-01T15:31:07;98770.40;;;11.20
68952;BMP180;56000;51.146;17.112;2023-04-01T15:37:13;98778.00;;;11.10
68952;BMP180;56000;51.146;17.112;2023-04-01T15:39:52;98774.60;;;11.04
68952;BMP180;56000;51.146;17.112;2023-04-01T15:42:49;98782.60;;;11.00
68952;BMP180;56000;51.146;17.112;2023-04-01T15:45:47;98781.80;;;11.00
68952;BMP180;56000;51.146;17.112;2023-04-01T15:48:43;98781.80;;;11.00
68952;BMP180;56000;51.146;17.112;2023-04-01T15:55:07;98784.00;;;11.00
68952;BMP180;56000;51.146;17.112;2023-04-01T15:57:52;98780.40;;;11.00
68952;BMP180;56000;51.146;17.112;2023-04-01T16:00:29;98778.40;;;11.00
68952;BMP180;56000;51.146;17.112;2023-04-01T16:03:19;98781.20;;;11.10
68952;BMP180;56000;51.146;17.112;2023-04-01T16:06:14;98782.60;;;11.10
68952;BMP180;56000;51.146;17.112;2023-04-01T16:09:04;98784.00;;;11.10
68952;BMP180;56000;51.146;17.112;2023-04-01T16:11:50;98791.60;;;11.10
68952;BMP180;56000;51.146;17.112;2023-04-01T16:14:38;98791.20;;;11.06
68952;BMP180;56000;51.146;17.112;2023-04-01T16:17:28;98789.40;;;11.00
68952;BMP180;56000;51.146;17.112;2023-04-01T16:20:17;98793.80;;;11.10
68952;BMP180;56000;51.146;17.112;2023-04-01T16:23:00;98798.40;;;11.10
68952;BMP180;56000;51.146;17.112;2023-04-01T16:25:40;98807.80;;;11.10
68952;BMP180;56000;51.146;17.112;2023-04-01T16:28:25;98813.80;;;11.02
68952;BMP180;56000;51.146;17.112;2023-04-01T16:31:06;98815.00;;;11.08
68952;BMP180;56000;51.146;17.112;2023-04-01T16:33:49;98822.80;;;11.08
68952;BMP180;56000;51.146;17.112;2023-04-01T16:36:30;98825.40;;;11.08
68952;BMP180;56000;51.146;17.112;2023-04-01T16:39:27;98832.60;;;11.10
68952;BMP180;56000;51.146;17.112;2023-04-01T16:42:24;98836.60;;;11.02
68952;BMP180;56000;51.146;17.112;2023-04-01T16:45:06;98842.00;;;11.00
68952;BMP180;56000;51.146;17.112;2023-04-01T16:47:51;98838.80;;;11.00
68952;BMP180;56000;51.146;17.112;2023-04-01T16:50:29;98842.60;;;11.00
68952;BMP180;56000;51.146;17.112;2023-04-01T16:53:14;98845.00;;;10.90
68952;BMP180;56000;51.146;17.112;2023-04-01T16:55:54;98845.20;;;10.90